Time;durP1;ratioP1;P1;durP2;ratioP2;P2;SDS_P1;SDS_P2;PMS_P1;PMS_P2;Temp;Humidity;BMP_temperature;BMP_pressure;BME280_temperature;BME280_humidity;BME280_pressure;Samples;Min_cycle;Max_cycle;Signal;HPM_P1;HPM_P2
2022/09/16 00:00:11;;;;;;;13.33;9.63;;;13.20;43.30;;;;;;5082094;28;20458;-61
2022/09/16 00:02:38;;;;;;;12.23;9.37;;;13.20;43.30;;;;;;5079549;28;20467;-63
2022/09/16 00:05:05;;;;;;;13.17;9.90;;;13.20;43.30;;;;;;5079204;28;21283;-63
2022/09/16 00:07:32;;;;;;;14.97;9.83;;;13.10;43.30;;;;;;5080347;28;21242;-61
2022/09/16 00:09:58;;;;;;;13.33;9.17;;;13.20;43.30;;;;;;5079746;28;20467;-61
2022/09/16 00:12:26;;;;;;;14.80;9.93;;;13.10;43.30;;;;;;5081596;28;20468;-61
2022/09/16 00:14:54;;;;;;;11.30;8.50;;;13.10;43.20;;;;;;5080848;28;20488;-61
2022/09/16 00:17:21;;;;;;;13.80;9.07;;;13.10;43.10;;;;;;5081006;28;20512;-63
2022/09/16 00:19:49;;;;;;;12.97;9.47;;;13.20;43.30;;;;;;5079097;28;20516;-61
2022/09/16 00:22:16;;;;;;;14.23;9.90;;;13.20;43.50;;;;;;5081500;28;20464;-61
2022/09/16 00:24:43;;;;;;;14.47;10.13;;;13.20;43.60;;;;;;5082011;28;20471;-63
2022/09/16 00:27:10;;;;;;;12.23;9.00;;;13.20;43.60;;;;;;5082692;28;20471;-63
2022/09/16 00:29:37;;;;;;;11.90;9.07;;;13.30;43.80;;;;;;5082957;28;20486;-61
2022/09/16 00:32:05;;;;;;;14.57;9.37;;;13.30;43.70;;;;;;5079221;28;20499;-63
2022/09/16 00:34:32;;;;;;;16.43;9.40;;;13.30;43.80;;;;;;5083895;28;20487;-63
2022/09/16 00:36:59;;;;;;;13.07;9.57;;;13.30;43.80;;;;;;5082593;28;20479;-64
2022/09/16 00:39:25;;;;;;;10.80;8.63;;;13.40;43.80;;;;;;5078352;28;20456;-62
2022/09/16 00:41:52;;;;;;;12.27;9.90;;;13.40;43.90;;;;;;5082080;28;20551;-61
2022/09/16 00:44:57;;;;;;;16.97;8.87;;;13.40;43.90;;;;;;5086186;28;20491;-63
2022/09/16 00:47:31;;;;;;;13.90;9.40;;;13.40;44.10;;;;;;5083865;28;20459;-61
2022/09/16 00:50:02;;;;;;;14.17;10.43;;;13.40;43.90;;;;;;5082976;28;20971;-63
2022/09/16 00:52:31;;;;;;;16.53;10.40;;;13.40;43.90;;;;;;5082943;28;20453;-63
2022/09/16 00:54:58;;;;;;;12.50;9.70;;;13.50;44.00;;;;;;5086348;28;20484;-63
2022/09/16 00:57:25;;;;;;;12.70;9.40;;;13.50;44.10;;;;;;5087609;28;20511;-63
2022/09/16 00:59:55;;;;;;;13.20;9.60;;;13.60;44.00;;;;;;5086590;28;20464;-63
2022/09/16 01:02:23;;;;;;;11.70;8.93;;;13.60;43.80;;;;;;5080605;28;20889;-63
2022/09/16 01:04:55;;;;;;;12.40;9.50;;;13.60;43.80;;;;;;5087567;28;20471;-63
2022/09/16 01:07:30;;;;;;;11.43;9.10;;;13.70;43.70;;;;;;5082414;28;20463;-63
2022/09/16 01:09:57;;;;;;;17.73;9.57;;;13.70;43.90;;;;;;5086644;28;20464;-63
2022/09/16 01:12:24;;;;;;;13.30;8.93;;;13.70;43.90;;;;;;5084850;28;20456;-63
2022/09/16 01:14:54;;;;;;;13.53;9.00;;;13.70;43.90;;;;;;5083319;28;20484;-63
2022/09/16 01:17:32;;;;;;;10.87;8.07;;;13.60;43.80;;;;;;5084851;28;20565;-60
2022/09/16 01:20:38;;;;;;;12.93;8.30;;;13.70;43.80;;;;;;5082638;28;20463;-63
2022/09/16 01:23:49;;;;;;;11.33;8.17;;;13.70;43.90;;;;;;5084545;28;20460;-62
2022/09/16 01:26:56;;;;;;;12.77;8.13;;;13.70;43.70;;;;;;5054034;28;20486;-63
2022/09/16 01:29:38;;;;;;;11.80;9.03;;;13.70;43.90;;;;;;5074383;28;20456;-63
2022/09/16 01:32:12;;;;;;;11.90;8.50;;;13.60;43.70;;;;;;5079980;28;20828;-60
2022/09/16 01:34:49;;;;;;;11.20;8.03;;;13.70;43.70;;;;;;5080083;28;20939;-63
2022/09/16 01:37:24;;;;;;;12.40;8.40;;;13.70;43.70;;;;;;5077418;28;20495;-63
2022/09/16 01:40:01;;;;;;;10.60;8.80;;;13.70;43.70;;;;;;5084023;28;20474;-63
2022/09/16 01:42:36;;;;;;;13.53;9.07;;;13.60;43.50;;;;;;5081632;28;20460;-63
2022/09/16 01:45:08;;;;;;;16.40;8.70;;;13.60;43.50;;;;;;5079661;28;20511;-62
2022/09/16 01:47:43;;;;;;;10.70;7.60;;;13.60;43.40;;;;;;5081187;28;20460;-62
2022/09/16 01:50:19;;;;;;;14.63;8.50;;;13.60;43.40;;;;;;5080374;28;20456;-62
2022/09/16 01:52:56;;;;;;;11.33;8.40;;;13.60;43.20;;;;;;5078404;28;20991;-62
2022/09/16 01:55:28;;;;;;;13.07;8.70;;;13.60;43.30;;;;;;5079802;28;20483;-62
2022/09/16 01:57:59;;;;;;;17.50;8.50;;;13.60;43.40;;;;;;5082768;28;20472;-62
2022/09/16 02:00:27;;;;;;;15.10;9.57;;;13.50;43.40;;;;;;5083358;28;20472;-62
2022/09/16 02:02:59;;;;;;;12.70;9.13;;;13.50;43.40;;;;;;5076503;28;20457;-62
2022/09/16 02:05:31;;;;;;;12.70;9.17;;;13.50;43.50;;;;;;5082565;28;20487;-62
2022/09/16 02:08:02;;;;;;;14.70;9.13;;;13.50;43.60;;;;;;5079659;28;20448;-62
2022/09/16 02:10:32;;;;;;;13.07;9.70;;;13.50;43.40;;;;;;5080816;28;20456;-62
2022/09/16 02:13:05;;;;;;;13.50;8.83;;;13.50;43.40;;;;;;5078304;28;20460;-62
2022/09/16 02:15:33;;;;;;;12.07;8.83;;;13.50;43.40;;;;;;5080209;28;20503;-62
2022/09/16 02:18:06;;;;;;;12.43;7.93;;;13.50;43.30;;;;;;5079237;28;20504;-62
2022/09/16 02:20:38;;;;;;;13.40;9.40;;;13.50;43.40;;;;;;5081010;28;20467;-62
2022/09/16 02:23:09;;;;;;;15.03;8.40;;;13.50;43.40;;;;;;5078290;28;21174;-63
2022/09/16 02:25:39;;;;;;;12.67;9.30;;;13.40;43.20;;;;;;5082028;28;20502;-62
2022/09/16 02:28:12;;;;;;;13.37;9.27;;;13.40;43.30;;;;;;5080626;28;20471;-62
2022/09/16 02:30:42;;;;;;;11.70;9.20;;;13.40;43.30;;;;;;5079068;28;21294;-62
2022/09/16 02:33:13;;;;;;;15.50;9.50;;;13.40;43.20;;;;;;5082934;28;20491;-62
2022/09/16 02:35:41;;;;;;;11.27;9.00;;;13.40;43.30;;;;;;5080095;28;20472;-62
2022/09/16 02:38:14;;;;;;;12.00;9.20;;;13.30;43.30;;;;;;5079944;28;21014;-62
2022/09/16 02:40:47;;;;;;;12.17;9.20;;;13.40;43.40;;;;;;5081927;28;20463;-62
2022/09/16 02:43:14;;;;;;;16.10;9.43;;;13.40;43.40;;;;;;5077180;28;20897;-62
2022/09/16 02:45:49;;;;;;;14.60;9.40;;;13.40;43.50;;;;;;5081835;28;20480;-62
2022/09/16 02:48:24;;;;;;;12.10;9.50;;;13.40;43.70;;;;;;5076580;28;20474;-62
2022/09/16 02:50:59;;;;;;;13.83;9.30;;;13.40;43.70;;;;;;5081030;28;20462;-62
2022/09/16 02:53:35;;;;;;;17.20;10.87;;;13.40;43.60;;;;;;5080679;28;20604;-62
2022/09/16 02:56:07;;;;;;;12.70;10.33;;;13.40;43.70;;;;;;5071709;28;20483;-62
2022/09/16 02:58:34;;;;;;;15.37;10.00;;;13.50;43.70;;;;;;5078432;28;20456;-60
2022/09/16 03:01:01;;;;;;;13.07;10.40;;;13.50;43.60;;;;;;5077547;28;20479;-61
2022/09/16 03:03:29;;;;;;;12.20;8.60;;;13.50;43.60;;;;;;5077290;28;20873;-63
2022/09/16 03:06:19;;;;;;;14.50;9.03;;;13.50;43.60;;;;;;5077253;28;20460;-61
2022/09/16 03:08:47;;;;;;;16.90;10.40;;;13.50;43.60;;;;;;5071184;28;20629;-63
2022/09/16 03:11:36;;;;;;;13.70;9.80;;;13.50;43.20;;;;;;5076463;28;20948;-61
2022/09/16 03:14:19;;;;;;;13.73;9.43;;;13.50;44.10;;;;;;5070281;28;20608;-61
2022/09/16 03:16:55;;;;;;;14.33;10.87;;;13.50;43.40;;;;;;5076357;28;20481;-61
2022/09/16 03:19:30;;;;;;;19.43;11.70;;;13.40;43.40;;;;;;5081277;28;20589;-63
2022/09/16 03:22:05;;;;;;;19.30;10.70;;;13.40;43.40;;;;;;5077988;28;20469;-61
2022/09/16 03:24:42;;;;;;;15.50;11.27;;;13.40;43.60;;;;;;5072713;28;20486;-61
2022/09/16 03:27:15;;;;;;;13.90;9.87;;;13.40;43.70;;;;;;5079217;28;20467;-63
2022/09/16 03:29:49;;;;;;;16.03;10.67;;;13.40;43.70;;;;;;5074753;28;20699;-61
2022/09/16 03:32:19;;;;;;;15.33;10.03;;;13.40;43.80;;;;;;5079381;28;20506;-63
2022/09/16 03:34:51;;;;;;;15.50;10.70;;;13.40;43.70;;;;;;5078798;28;21003;-61
2022/09/16 03:37:20;;;;;;;13.13;9.53;;;13.30;43.80;;;;;;5073974;28;20476;-61
2022/09/16 03:39:52;;;;;;;14.60;9.53;;;13.30;43.80;;;;;;5076452;28;20533;-61
2022/09/16 03:42:20;;;;;;;15.20;11.40;;;13.30;43.80;;;;;;5077250;28;20460;-61
2022/09/16 03:44:47;;;;;;;16.43;12.00;;;13.40;43.80;;;;;;5078538;28;20488;-61
2022/09/16 03:47:14;;;;;;;15.60;9.80;;;13.40;43.80;;;;;;5075218;28;21098;-63
2022/09/16 03:49:42;;;;;;;14.53;11.20;;;13.40;43.70;;;;;;5080061;28;20483;-61
2022/09/16 03:52:10;;;;;;;13.73;10.00;;;13.40;43.80;;;;;;5081609;28;20707;-61
2022/09/16 03:54:38;;;;;;;14.60;11.57;;;13.50;43.80;;;;;;5077389;28;20536;-62
2022/09/16 03:57:05;;;;;;;14.83;9.83;;;13.50;43.80;;;;;;5078996;28;20472;-61
2022/09/16 03:59:32;;;;;;;14.30;11.33;;;13.60;43.60;;;;;;5071924;28;20949;-63
2022/09/16 04:01:58;;;;;;;19.67;11.40;;;13.70;43.60;;;;;;5072146;28;20477;-63
2022/09/16 04:04:25;;;;;;;14.13;10.07;;;13.70;43.50;;;;;;5080742;28;20483;-63
2022/09/16 04:06:52;;;;;;;13.77;9.73;;;13.80;43.30;;;;;;5072164;28;20461;-63
2022/09/16 04:09:20;;;;;;;13.97;10.70;;;13.80;43.20;;;;;;5075770;28;20500;-63
2022/09/16 04:11:47;;;;;;;14.43;9.77;;;13.80;43.00;;;;;;5075752;28;20475;-60
2022/09/16 04:14:14;;;;;;;12.47;9.27;;;13.80;43.10;;;;;;5072926;28;20487;-61
2022/09/16 04:16:41;;;;;;;14.00;10.40;;;13.80;43.10;;;;;;5080539;28;20637;-61
2022/09/16 04:19:08;;;;;;;14.07;10.90;;;13.80;43.00;;;;;;5085323;28;20460;-60
2022/09/16 04:21:35;;;;;;;13.43;10.10;;;13.90;43.10;;;;;;5080470;28;20460;-61
2022/09/16 04:24:02;;;;;;;17.27;9.57;;;13.90;42.90;;;;;;5082313;28;20480;-61
2022/09/16 04:26:30;;;;;;;12.30;10.23;;;13.90;42.70;;;;;;5075975;28;20460;-61
2022/09/16 04:28:57;;;;;;;13.33;10.17;;;14.00;42.70;;;;;;5080473;28;20457;-61
2022/09/16 04:31:23;;;;;;;14.70;11.27;;;14.00;42.60;;;;;;5084160;28;20476;-61
2022/09/16 04:33:50;;;;;;;16.23;10.00;;;14.00;42.60;;;;;;5079706;28;20487;-61
2022/09/16 04:36:19;;;;;;;13.40;11.10;;;13.90;42.60;;;;;;5087284;28;20460;-61
2022/09/16 04:38:48;;;;;;;19.40;10.60;;;14.00;42.50;;;;;;5078409;28;20579;-62
2022/09/16 04:41:17;;;;;;;15.23;10.10;;;14.00;42.50;;;;;;5078679;28;20467;-62
2022/09/16 04:43:45;;;;;;;13.47;10.43;;;14.00;42.30;;;;;;5082010;28;20464;-61
2022/09/16 04:46:13;;;;;;;13.10;10.23;;;14.00;42.20;;;;;;5080491;28;20456;-60
2022/09/16 04:48:40;;;;;;;15.67;10.40;;;14.00;42.30;;;;;;5077855;28;20460;-60
2022/09/16 04:51:09;;;;;;;12.80;10.40;;;14.00;42.40;;;;;;5069802;28;20452;-61
2022/09/16 04:53:36;;;;;;;13.73;11.60;;;14.00;42.50;;;;;;5072024;28;20475;-60
2022/09/16 04:56:06;;;;;;;13.90;9.33;;;14.00;42.40;;;;;;5076161;28;20464;-60
2022/09/16 04:58:34;;;;;;;14.53;11.20;;;14.00;42.50;;;;;;5078554;28;20806;-60
2022/09/16 05:01:06;;;;;;;17.83;11.20;;;14.00;42.60;;;;;;5075557;28;20507;-60
2022/09/16 05:03:33;;;;;;;15.30;10.97;;;14.00;42.70;;;;;;5074141;28;20460;-60
2022/09/16 05:06:11;;;;;;;13.50;10.07;;;14.00;42.70;;;;;;5079180;28;20468;-60
2022/09/16 05:08:38;;;;;;;14.63;10.20;;;14.00;43.00;;;;;;5072989;28;20459;-61
2022/09/16 05:11:07;;;;;;;12.57;10.07;;;14.00;42.80;;;;;;5070225;28;20542;-61
2022/09/16 05:13:34;;;;;;;18.33;10.53;;;14.00;42.90;;;;;;5076828;28;20469;-61
2022/09/16 05:16:03;;;;;;;13.53;10.80;;;14.00;42.90;;;;;;5073722;28;20534;-62
2022/09/16 05:18:31;;;;;;;16.43;11.57;;;14.00;43.10;;;;;;5074790;28;20556;-60
2022/09/16 05:20:59;;;;;;;16.40;10.20;;;14.00;43.10;;;;;;5076758;28;20456;-61
2022/09/16 05:23:26;;;;;;;14.27;11.00;;;14.00;43.10;;;;;;5074616;28;20465;-61
2022/09/16 05:25:53;;;;;;;15.00;11.03;;;14.00;43.00;;;;;;5071115;28;20477;-61
2022/09/16 05:28:20;;;;;;;19.60;10.30;;;14.10;43.10;;;;;;5070110;28;20544;-60
2022/09/16 05:30:47;;;;;;;14.83;10.80;;;14.10;43.20;;;;;;5077304;28;20925;-60
2022/09/16 05:33:14;;;;;;;12.70;10.30;;;14.20;43.00;;;;;;5079291;28;20460;-60
2022/09/16 05:35:42;;;;;;;14.30;10.60;;;14.20;42.80;;;;;;5075177;28;20483;-59
2022/09/16 05:38:09;;;;;;;14.80;11.07;;;14.30;42.70;;;;;;5075256;28;20478;-60
2022/09/16 05:40:35;;;;;;;17.23;11.20;;;14.30;42.60;;;;;;5081031;28;21151;-60
2022/09/16 05:43:02;;;;;;;13.47;9.87;;;14.30;42.70;;;;;;5081181;28;20459;-60
2022/09/16 05:45:29;;;;;;;13.73;10.07;;;14.30;42.70;;;;;;5079300;28;20481;-60
2022/09/16 05:47:56;;;;;;;11.63;9.47;;;14.40;42.60;;;;;;5076317;28;20470;-60
2022/09/16 05:50:22;;;;;;;14.27;10.47;;;14.40;42.60;;;;;;5074070;28;20452;-60
2022/09/16 05:52:51;;;;;;;12.77;9.87;;;14.40;42.50;;;;;;5080232;28;20605;-60
2022/09/16 05:55:17;;;;;;;14.43;10.07;;;14.40;42.50;;;;;;5076094;28;20879;-60
2022/09/16 05:57:45;;;;;;;13.37;10.70;;;14.50;42.60;;;;;;5075647;28;20512;-59
2022/09/16 06:00:13;;;;;;;14.23;11.10;;;14.40;42.50;;;;;;5078325;28;20936;-60
2022/09/16 06:02:40;;;;;;;16.90;9.87;;;14.40;42.50;;;;;;5078830;28;20736;-60
2022/09/16 06:05:08;;;;;;;13.83;10.33;;;14.50;42.40;;;;;;5074033;28;20585;-60
2022/09/16 06:07:35;;;;;;;15.03;10.90;;;14.50;42.30;;;;;;5078596;28;20975;-60
2022/09/16 06:10:03;;;;;;;12.50;9.57;;;14.50;42.20;;;;;;5076010;28;20466;-60
2022/09/16 06:12:30;;;;;;;13.50;9.70;;;14.60;42.30;;;;;;5079301;28;20790;-61
2022/09/16 06:14:57;;;;;;;12.23;10.30;;;14.60;42.30;;;;;;5073097;28;20798;-61
2022/09/16 06:17:24;;;;;;;12.93;9.23;;;14.60;42.40;;;;;;5070914;28;20699;-59
2022/09/16 06:19:50;;;;;;;16.23;10.33;;;14.60;42.40;;;;;;5081598;28;20463;-59
2022/09/16 06:22:17;;;;;;;15.07;10.17;;;14.70;42.40;;;;;;5075454;28;20485;-59
2022/09/16 06:24:44;;;;;;;14.17;10.83;;;14.80;42.30;;;;;;5077482;28;20468;-60
2022/09/16 06:27:12;;;;;;;13.57;10.40;;;14.80;42.40;;;;;;5078066;28;20452;-60
2022/09/16 06:29:39;;;;;;;11.77;10.20;;;14.80;42.40;;;;;;5078370;28;20567;-60
2022/09/16 06:32:06;;;;;;;14.30;11.60;;;14.90;42.50;;;;;;5078877;28;20954;-60
2022/09/16 06:34:33;;;;;;;13.27;10.20;;;14.90;42.40;;;;;;5076354;28;20830;-61
2022/09/16 06:37:01;;;;;;;12.83;10.00;;;15.00;42.20;;;;;;5079616;28;20453;-61
2022/09/16 06:39:27;;;;;;;13.27;9.43;;;15.20;42.20;;;;;;5074013;28;20498;-64
2022/09/16 06:41:54;;;;;;;14.07;9.13;;;15.40;41.90;;;;;;5074004;28;20456;-61
2022/09/16 06:44:22;;;;;;;13.90;8.13;;;16.50;41.70;;;;;;5074873;28;20503;-60
2022/09/16 06:46:49;;;;;;;13.73;8.10;;;17.40;37.20;;;;;;5073718;28;20547;-62
2022/09/16 06:49:16;;;;;;;10.60;7.80;;;17.50;35.90;;;;;;5079371;28;20459;-62
2022/09/16 06:51:43;;;;;;;11.27;8.77;;;17.50;35.70;;;;;;5075529;28;20467;-60
2022/09/16 06:54:11;;;;;;;10.60;8.00;;;17.50;35.40;;;;;;5073197;28;20472;-62
2022/09/16 06:56:40;;;;;;;12.03;8.60;;;17.40;34.90;;;;;;5081762;28;20452;-61
2022/09/16 06:59:07;;;;;;;11.23;8.07;;;17.30;34.80;;;;;;5081033;28;20571;-63
2022/09/16 07:01:36;;;;;;;12.53;8.20;;;17.20;34.90;;;;;;5076793;28;20844;-64
2022/09/16 07:04:05;;;;;;;12.23;8.37;;;17.20;34.80;;;;;;5075627;28;21067;-65
2022/09/16 07:06:33;;;;;;;11.27;7.80;;;17.10;34.70;;;;;;5070846;28;20464;-65
2022/09/16 07:08:59;;;;;;;11.77;8.20;;;17.00;34.80;;;;;;5077802;28;20731;-65
2022/09/16 07:11:26;;;;;;;16.37;8.70;;;17.00;34.80;;;;;;5071670;28;20464;-66
2022/09/16 07:13:53;;;;;;;11.93;9.60;;;17.00;34.90;;;;;;5079875;28;20486;-64
2022/09/16 07:16:22;;;;;;;12.17;8.53;;;17.00;35.10;;;;;;5074129;28;20461;-65
2022/09/16 07:18:54;;;;;;;13.00;9.27;;;17.00;35.20;;;;;;5070926;28;20508;-67
2022/09/16 07:21:24;;;;;;;11.63;8.40;;;16.90;35.30;;;;;;5072798;28;20463;-64
2022/09/16 07:23:54;;;;;;;10.07;8.27;;;16.90;35.30;;;;;;5073537;28;20518;-63
2022/09/16 07:26:25;;;;;;;14.20;8.50;;;16.90;35.60;;;;;;5069509;28;21088;-63
2022/09/16 07:28:52;;;;;;;10.60;7.43;;;16.80;35.60;;;;;;5070358;28;20453;-63
2022/09/16 07:31:23;;;;;;;14.73;9.00;;;16.90;35.60;;;;;;5071523;28;20472;-63
2022/09/16 07:33:51;;;;;;;10.03;7.83;;;16.90;35.80;;;;;;5072335;28;20975;-69
2022/09/16 07:36:21;;;;;;;10.90;8.40;;;16.90;36.10;;;;;;5074075;28;21028;-61
2022/09/16 07:38:48;;;;;;;14.10;8.90;;;16.80;36.10;;;;;;5073268;28;20957;-60
2022/09/16 07:41:17;;;;;;;12.13;8.20;;;16.80;36.00;;;;;;5072265;28;20464;-63
2022/09/16 07:43:44;;;;;;;11.93;8.40;;;16.80;36.20;;;;;;5075678;28;20912;-65
2022/09/16 07:46:15;;;;;;;10.87;8.60;;;16.80;36.30;;;;;;5074774;28;20464;-65
2022/09/16 07:48:42;;;;;;;11.77;8.30;;;16.80;36.30;;;;;;5071439;28;20530;-61
2022/09/16 07:51:11;;;;;;;10.97;8.60;;;16.80;36.40;;;;;;5080424;28;20524;-60
2022/09/16 07:53:39;;;;;;;16.53;9.37;;;16.90;36.50;;;;;;5081521;28;20456;-59
2022/09/16 07:56:08;;;;;;;11.10;8.53;;;17.00;36.00;;;;;;5077877;28;20467;-60
2022/09/16 07:58:36;;;;;;;13.27;8.13;;;17.00;36.00;;;;;;5082669;28;20479;-61
2022/09/16 08:01:03;;;;;;;13.23;8.97;;;17.00;36.10;;;;;;5084494;28;20568;-62
2022/09/16 08:03:29;;;;;;;11.07;8.63;;;17.00;36.20;;;;;;5084277;28;20473;-62
2022/09/16 08:06:00;;;;;;;13.03;9.50;;;17.00;36.10;;;;;;5086310;28;20460;-62
2022/09/16 08:08:26;;;;;;;13.33;9.30;;;17.00;36.10;;;;;;5082494;28;20460;-62
2022/09/16 08:10:55;;;;;;;11.57;8.90;;;16.90;36.20;;;;;;5087616;28;20456;-62
2022/09/16 08:13:23;;;;;;;12.63;10.20;;;16.90;36.30;;;;;;5086371;28;20452;-62
2022/09/16 08:15:49;;;;;;;12.60;9.60;;;16.90;36.60;;;;;;5081698;28;20488;-62
2022/09/16 08:18:16;;;;;;;13.80;10.33;;;16.90;36.70;;;;;;5082869;28;20488;-62
2022/09/16 08:20:43;;;;;;;11.93;8.53;;;16.90;36.70;;;;;;5087747;28;20467;-62
2022/09/16 08:23:10;;;;;;;13.93;10.40;;;16.90;36.70;;;;;;5086485;28;20460;-61
2022/09/16 08:25:37;;;;;;;13.80;11.00;;;16.90;36.80;;;;;;5078819;28;20511;-61
2022/09/16 08:28:05;;;;;;;13.23;10.83;;;16.90;37.00;;;;;;5082774;28;20482;-66
2022/09/16 08:30:31;;;;;;;14.70;10.23;;;16.80;37.50;;;;;;5081815;28;20452;-66
2022/09/16 08:32:59;;;;;;;14.03;11.07;;;16.80;37.10;;;;;;5083603;28;20461;-65
2022/09/16 08:35:26;;;;;;;17.23;14.13;;;16.70;37.10;;;;;;5081095;28;20468;-64
2022/09/16 08:37:53;;;;;;;17.73;13.83;;;16.70;37.00;;;;;;5082654;28;20535;-64
2022/09/16 08:40:23;;;;;;;17.10;15.00;;;16.60;36.90;;;;;;5081195;28;20472;-60
2022/09/16 08:43:00;;;;;;;16.10;13.70;;;16.50;36.90;;;;;;5077258;28;20547;-67
2022/09/16 08:45:34;;;;;;;17.53;13.83;;;16.40;36.80;;;;;;5078197;28;21002;-64
2022/09/16 08:48:18;;;;;;;18.93;14.00;;;16.40;36.70;;;;;;5078916;28;20452;-62
2022/09/16 08:50:47;;;;;;;17.00;13.63;;;16.30;36.70;;;;;;5081263;28;20456;-71
2022/09/16 08:53:19;;;;;;;18.20;14.77;;;16.20;36.60;;;;;;5082537;28;20456;-73
2022/09/16 08:55:49;;;;;;;18.87;15.23;;;16.20;36.80;;;;;;5082969;28;20488;-72
2022/09/16 08:58:18;;;;;;;17.50;12.33;;;16.20;36.80;;;;;;5082778;28;21255;-71
2022/09/16 09:00:53;;;;;;;12.07;9.17;;;16.10;37.10;;;;;;5079284;28;20484;-63
2022/09/16 09:03:34;;;;;;;12.00;8.67;;;16.00;36.80;;;;;;5084852;28;20463;-63
2022/09/16 09:06:04;;;;;;;15.20;8.43;;;16.00;36.10;;;;;;5079234;28;20461;-64
2022/09/16 09:08:42;;;;;;;12.27;9.30;;;15.90;36.00;;;;;;5085204;28;20460;-63
2022/09/16 09:11:16;;;;;;;13.03;8.77;;;15.90;35.80;;;;;;5085649;28;20452;-63
2022/09/16 09:14:09;;;;;;;12.10;8.83;;;15.90;35.90;;;;;;5084724;28;20451;-66
2022/09/16 09:16:46;;;;;;;14.53;8.33;;;15.80;36.30;;;;;;5081808;28;21103;-68
2022/09/16 09:19:34;;;;;;;13.73;6.30;;;15.70;36.20;;;;;;5083514;28;20484;-67
2022/09/16 09:22:09;;;;;;;5.87;3.50;;;15.60;35.80;;;;;;5081006;28;21043;-64
2022/09/16 09:24:47;;;;;;;7.27;3.07;;;15.50;34.50;;;;;;5080755;28;20476;-67
2022/09/16 09:27:17;;;;;;;7.33;3.50;;;15.50;34.30;;;;;;5088549;28;20460;-67
2022/09/16 09:30:08;;;;;;;6.80;3.30;;;15.40;33.70;;;;;;5076969;28;20448;-71
2022/09/16 09:32:58;;;;;;;8.00;3.57;;;15.40;33.90;;;;;;5081622;28;21002;-66
2022/09/16 09:35:46;;;;;;;7.20;3.37;;;15.30;34.10;;;;;;5080668;28;20484;-62
2022/09/16 09:38:43;;;;;;;6.10;3.77;;;15.30;34.20;;;;;;5085180;28;20461;-62
2022/09/16 09:41:13;;;;;;;6.20;3.70;;;15.20;34.70;;;;;;5081967;28;20461;-60
2022/09/16 09:43:45;;;;;;;5.70;3.17;;;15.20;34.70;;;;;;5084897;28;20468;-62
2022/09/16 09:46:17;;;;;;;7.83;3.63;;;15.20;34.60;;;;;;5084758;28;20467;-62
2022/09/16 09:48:51;;;;;;;6.93;3.50;;;15.20;34.60;;;;;;5083255;28;20467;-62
2022/09/16 09:51:24;;;;;;;6.90;3.40;;;15.20;34.50;;;;;;5082453;28;20457;-62
2022/09/16 09:53:53;;;;;;;7.80;3.60;;;15.10;34.80;;;;;;5084992;28;20484;-62
2022/09/16 09:56:23;;;;;;;6.60;3.47;;;15.10;34.90;;;;;;5082377;28;20456;-63
2022/09/16 09:58:58;;;;;;;7.43;4.03;;;15.10;35.10;;;;;;5081757;28;20499;-63
2022/09/16 10:01:25;;;;;;;6.90;3.57;;;15.00;35.20;;;;;;5082644;28;21018;-63
2022/09/16 10:03:56;;;;;;;8.80;4.23;;;15.00;35.10;;;;;;5080993;28;20479;-61
2022/09/16 10:06:27;;;;;;;10.10;5.23;;;15.00;35.20;;;;;;5083222;28;20453;-62
2022/09/16 10:08:57;;;;;;;7.53;5.20;;;14.90;35.50;;;;;;5081339;28;20456;-62
2022/09/16 10:11:26;;;;;;;9.67;5.20;;;14.90;35.90;;;;;;5079355;28;20944;-62
2022/09/16 10:13:56;;;;;;;9.27;5.97;;;14.90;36.20;;;;;;5081424;28;20468;-62
2022/09/16 10:16:28;;;;;;;9.00;6.00;;;14.80;36.60;;;;;;5082568;28;20836;-62
2022/09/16 10:19:04;;;;;;;6.50;4.13;;;14.80;36.70;;;;;;5081140;28;20479;-62
2022/09/16 10:21:44;;;;;;;6.47;3.60;;;14.80;36.60;;;;;;5082856;28;20459;-62
2022/09/16 10:24:28;;;;;;;5.10;2.53;;;14.90;36.30;;;;;;5080101;28;20564;-62
2022/09/16 10:26:56;;;;;;;5.63;2.60;;;14.80;36.20;;;;;;5080176;28;21172;-62
2022/09/16 10:29:23;;;;;;;5.83;3.07;;;14.80;36.30;;;;;;5082696;28;20955;-61
2022/09/16 10:31:50;;;;;;;5.17;2.73;;;14.80;36.40;;;;;;5081952;28;20524;-61
2022/09/16 10:34:25;;;;;;;4.60;2.20;;;14.80;36.50;;;;;;5080834;28;20776;-61
2022/09/16 10:37:01;;;;;;;9.40;3.30;;;14.80;36.60;;;;;;5082920;28;20475;-61
2022/09/16 10:39:29;;;;;;;6.63;2.30;;;14.90;37.40;;;;;;5082840;28;20490;-62
2022/09/16 10:41:56;;;;;;;5.87;2.50;;;14.90;36.50;;;;;;5081184;28;20460;-61
2022/09/16 10:44:27;;;;;;;5.10;2.37;;;14.90;36.20;;;;;;5081179;28;20480;-62
2022/09/16 10:46:57;;;;;;;6.20;2.57;;;14.90;36.20;;;;;;5080524;28;20460;-61
2022/09/16 10:49:33;;;;;;;4.87;2.33;;;14.90;36.20;;;;;;5079442;28;20455;-61
2022/09/16 10:52:15;;;;;;;6.27;2.30;;;14.90;36.30;;;;;;5080988;28;20457;-61
2022/09/16 10:54:41;;;;;;;6.00;2.73;;;14.90;36.40;;;;;;5079117;28;21252;-62
2022/09/16 10:57:25;;;;;;;5.77;3.00;;;15.00;35.90;;;;;;5082102;28;20471;-61
2022/09/16 11:00:03;;;;;;;5.17;2.60;;;15.10;36.20;;;;;;5078536;28;20491;-60
2022/09/16 11:03:13;;;;;;;6.27;2.40;;;15.20;35.40;;;;;;5083279;28;20471;-59
2022/09/16 11:05:57;;;;;;;5.37;2.37;;;15.40;35.60;;;;;;5082968;28;20554;-59
2022/09/16 11:08:37;;;;;;;5.60;2.67;;;15.50;35.30;;;;;;5082132;28;20560;-61
2022/09/16 11:11:11;;;;;;;5.73;2.70;;;15.70;35.10;;;;;;5080815;28;21066;-59
2022/09/16 11:13:48;;;;;;;7.20;2.83;;;15.80;34.90;;;;;;5080625;28;20474;-60
2022/09/16 11:16:35;;;;;;;5.43;2.70;;;15.80;34.60;;;;;;5079451;28;20460;-60
2022/09/16 11:19:07;;;;;;;5.33;3.10;;;15.80;34.30;;;;;;5081043;28;20995;-63
2022/09/16 11:21:48;;;;;;;6.60;3.03;;;15.80;34.30;;;;;;5074049;28;21004;-59
2022/09/16 11:24:29;;;;;;;5.50;2.70;;;15.90;34.80;;;;;;5078317;28;20476;-60
2022/09/16 11:27:07;;;;;;;7.77;3.13;;;16.00;34.30;;;;;;5080508;28;20460;-62
2022/09/16 11:29:50;;;;;;;6.23;3.50;;;16.20;33.80;;;;;;5082407;28;20974;-63
2022/09/16 11:32:26;;;;;;;6.50;3.13;;;16.30;33.70;;;;;;5082492;28;20483;-59
2022/09/16 11:35:08;;;;;;;8.47;3.80;;;16.30;33.60;;;;;;5082846;28;20475;-59
2022/09/16 11:37:42;;;;;;;6.10;3.10;;;16.30;33.60;;;;;;5084080;28;20463;-59
2022/09/16 11:40:18;;;;;;;5.20;3.03;;;16.40;33.30;;;;;;5077000;28;20490;-61
2022/09/16 11:42:53;;;;;;;9.27;3.30;;;16.50;32.80;;;;;;5083853;28;20982;-61
2022/09/16 11:45:38;;;;;;;5.43;3.30;;;16.50;32.70;;;;;;5076538;28;20559;-61
2022/09/16 11:48:21;;;;;;;5.70;3.30;;;16.60;32.60;;;;;;5080427;28;20456;-61
2022/09/16 11:50:56;;;;;;;6.67;3.50;;;16.60;32.60;;;;;;5076195;28;20982;-61
2022/09/16 11:53:47;;;;;;;5.60;3.03;;;16.60;32.20;;;;;;5085548;28;20456;-61
2022/09/16 11:56:18;;;;;;;7.00;3.50;;;16.60;31.80;;;;;;5082052;28;20456;-61
2022/09/16 11:58:48;;;;;;;8.50;4.63;;;16.60;31.90;;;;;;5079727;28;20466;-62
2022/09/16 12:01:32;;;;;;;6.80;3.00;;;16.60;32.10;;;;;;5076629;28;20488;-67
2022/09/16 12:04:06;;;;;;;5.83;3.80;;;16.50;32.50;;;;;;5076772;28;20992;-63
2022/09/16 12:06:40;;;;;;;9.73;4.50;;;16.50;32.60;;;;;;5081847;28;20545;-63
2022/09/16 12:09:17;;;;;;;10.70;8.00;;;16.40;32.50;;;;;;5082722;28;20457;-63
2022/09/16 12:11:48;;;;;;;12.70;9.80;;;16.20;32.60;;;;;;5082634;28;20982;-63
2022/09/16 12:14:18;;;;;;;13.10;9.70;;;16.10;32.80;;;;;;5080249;28;20874;-63
2022/09/16 12:16:49;;;;;;;12.27;9.67;;;16.00;32.90;;;;;;5083134;28;20460;-64
2022/09/16 12:19:21;;;;;;;10.47;8.30;;;16.10;33.30;;;;;;5078639;28;20466;-63
2022/09/16 12:21:52;;;;;;;9.20;6.90;;;16.30;33.40;;;;;;5079360;28;20488;-63
2022/09/16 12:24:26;;;;;;;9.20;6.20;;;16.60;33.90;;;;;;5078626;28;20564;-63
2022/09/16 12:26:59;;;;;;;8.70;5.43;;;17.40;33.40;;;;;;5081860;28;20467;-61
2022/09/16 12:29:31;;;;;;;7.60;5.17;;;18.10;32.30;;;;;;5082683;28;20457;-62
2022/09/16 12:32:04;;;;;;;7.27;4.60;;;18.50;30.70;;;;;;5078314;28;20476;-62
2022/09/16 12:34:36;;;;;;;8.40;4.60;;;18.60;29.00;;;;;;5077621;28;20480;-62
2022/09/16 12:37:24;;;;;;;8.33;4.63;;;18.70;28.00;;;;;;5071827;28;20457;-62
2022/09/16 12:39:52;;;;;;;7.00;4.33;;;18.80;26.70;;;;;;5082285;28;20570;-62
2022/09/16 12:42:53;;;;;;;5.53;3.63;;;18.60;26.50;;;;;;5086797;28;20472;-62
2022/09/16 12:45:46;;;;;;;7.60;3.80;;;18.50;27.20;;;;;;5017118;28;20793;-62
2022/09/16 12:48:41;;;;;;;7.20;4.50;;;18.30;26.80;;;;;;5086684;28;20568;-62
2022/09/16 12:51:32;;;;;;;9.10;5.53;;;18.20;27.50;;;;;;5088055;28;20987;-61
2022/09/16 12:54:14;;;;;;;7.60;5.23;;;18.20;27.10;;;;;;5083664;28;20484;-62
2022/09/16 12:56:57;;;;;;;10.47;4.63;;;18.20;27.10;;;;;;5088570;28;20471;-61
2022/09/16 12:59:37;;;;;;;5.57;3.17;;;18.20;27.50;;;;;;5084882;28;21018;-62